sensor_id;sensor_type;location;lat;lon;timestamp;P1;durP1;ratioP1;P2;durP2;ratioP2
77872;SDS011;67068;52.116;4.440;2023-06-22T00:02:18;6.03;;;2.20;;
77872;SDS011;67068;52.116;4.440;2023-06-22T00:04:43;6.03;;;1.97;;
77872;SDS011;67068;52.116;4.440;2023-06-22T00:07:09;6.30;;;2.30;;
77872;SDS011;67068;52.116;4.440;2023-06-22T00:09:34;6.80;;;2.17;;
77872;SDS011;67068;52.116;4.440;2023-06-22T00:11:59;5.80;;;2.10;;
77872;SDS011;67068;52.116;4.440;2023-06-22T00:14:24;5.97;;;2.27;;
77872;SDS011;67068;52.116;4.440;2023-06-22T00:16:50;7.03;;;2.10;;
77872;SDS011;67068;52.116;4.440;2023-06-22T00:19:19;5.55;;;1.98;;
77872;SDS011;67068;52.116;4.440;2023-06-22T00:21:46;6.90;;;2.20;;
77872;SDS011;67068;52.116;4.440;2023-06-22T00:24:12;6.28;;;1.92;;
77872;SDS011;67068;52.116;4.440;2023-06-22T00:26:37;5.23;;;1.90;;
77872;SDS011;67068;52.116;4.440;2023-06-22T00:29:02;5.90;;;2.13;;
77872;SDS011;67068;52.116;4.440;2023-06-22T00:31:27;5.67;;;1.90;;
77872;SDS011;67068;52.116;4.440;2023-06-22T00:33:52;6.03;;;2.00;;
77872;SDS011;67068;52.116;4.440;2023-06-22T00:36:18;6.80;;;2.10;;
77872;SDS011;67068;52.116;4.440;2023-06-22T00:38:44;6.80;;;2.13;;
77872;SDS011;67068;52.116;4.440;2023-06-22T00:41:09;6.30;;;2.13;;
77872;SDS011;67068;52.116;4.440;2023-06-22T00:43:34;5.27;;;1.77;;
77872;SDS011;67068;52.116;4.440;2023-06-22T00:45:59;5.50;;;1.90;;
77872;SDS011;67068;52.116;4.440;2023-06-22T00:48:25;5.47;;;1.75;;
77872;SDS011;67068;52.116;4.440;2023-06-22T00:50:50;5.57;;;1.90;;
77872;SDS011;67068;52.116;4.440;2023-06-22T00:53:18;5.65;;;1.90;;
77872;SDS011;67068;52.116;4.440;2023-06-22T00:55:44;6.68;;;2.25;;
77872;SDS011;67068;52.116;4.440;2023-06-22T00:58:13;7.25;;;2.25;;
77872;SDS011;67068;52.116;4.440;2023-06-22T01:00:38;5.80;;;1.88;;
77872;SDS011;67068;52.116;4.440;2023-06-22T01:03:04;5.82;;;1.85;;
77872;SDS011;67068;52.116;4.440;2023-06-22T01:05:33;5.18;;;1.90;;
77872;SDS011;67068;52.116;4.440;2023-06-22T01:13:50;5.05;;;1.80;;
77872;SDS011;67068;52.116;4.440;2023-06-22T01:18:41;5.67;;;1.90;;
77872;SDS011;67068;52.116;4.440;2023-06-22T01:21:07;5.65;;;1.83;;
77872;SDS011;67068;52.116;4.440;2023-06-22T01:26:29;6.40;;;2.03;;
77872;SDS011;67068;52.116;4.440;2023-06-22T01:29:00;5.50;;;1.85;;
77872;SDS011;67068;52.116;4.440;2023-06-22T01:31:26;6.43;;;2.08;;
77872;SDS011;67068;52.116;4.440;2023-06-22T01:34:10;6.28;;;1.83;;
77872;SDS011;67068;52.116;4.440;2023-06-22T01:36:36;5.40;;;2.05;;
77872;SDS011;67068;52.116;4.440;2023-06-22T01:39:02;4.63;;;1.45;;
77872;SDS011;67068;52.116;4.440;2023-06-22T01:41:28;5.15;;;1.60;;
77872;SDS011;67068;52.116;4.440;2023-06-22T01:43:55;5.60;;;1.90;;
77872;SDS011;67068;52.116;4.440;2023-06-22T01:46:20;5.57;;;1.80;;
77872;SDS011;67068;52.116;4.440;2023-06-22T01:48:46;6.43;;;2.13;;
77872;SDS011;67068;52.116;4.440;2023-06-22T01:51:12;5.25;;;1.92;;
77872;SDS011;67068;52.116;4.440;2023-06-22T01:53:37;5.40;;;1.95;;
77872;SDS011;67068;52.116;4.440;2023-06-22T01:56:02;5.47;;;1.60;;
77872;SDS011;67068;52.116;4.440;2023-06-22T01:58:28;6.05;;;2.10;;
77872;SDS011;67068;52.116;4.440;2023-06-22T02:01:12;5.75;;;1.77;;
77872;SDS011;67068;52.116;4.440;2023-06-22T02:03:43;5.00;;;1.73;;
77872;SDS011;67068;52.116;4.440;2023-06-22T02:06:31;4.95;;;1.80;;
77872;SDS011;67068;52.116;4.440;2023-06-22T02:08:55;5.72;;;2.05;;
77872;SDS011;67068;52.116;4.440;2023-06-22T02:11:21;5.25;;;1.60;;
77872;SDS011;67068;52.116;4.440;2023-06-22T02:13:47;4.82;;;1.75;;
77872;SDS011;67068;52.116;4.440;2023-06-22T02:16:13;5.50;;;2.00;;
77872;SDS011;67068;52.116;4.440;2023-06-22T02:18:45;4.63;;;1.60;;
77872;SDS011;67068;52.116;4.440;2023-06-22T02:21:10;4.75;;;1.73;;
77872;SDS011;67068;52.116;4.440;2023-06-22T02:23:35;4.80;;;1.70;;
77872;SDS011;67068;52.116;4.440;2023-06-22T02:26:02;5.50;;;1.90;;
77872;SDS011;67068;52.116;4.440;2023-06-22T02:28:28;5.65;;;2.08;;
77872;SDS011;67068;52.116;4.440;2023-06-22T02:30:53;6.23;;;1.97;;
77872;SDS011;67068;52.116;4.440;2023-06-22T02:33:18;5.73;;;1.90;;
77872;SDS011;67068;52.116;4.440;2023-06-22T02:35:44;4.53;;;1.77;;
77872;SDS011;67068;52.116;4.440;2023-06-22T02:38:12;4.60;;;1.60;;
77872;SDS011;67068;52.116;4.440;2023-06-22T02:40:37;4.70;;;1.67;;
77872;SDS011;67068;52.116;4.440;2023-06-22T02:43:03;4.77;;;1.60;;
77872;SDS011;67068;52.116;4.440;2023-06-22T02:45:28;5.97;;;1.63;;
77872;SDS011;67068;52.116;4.440;2023-06-22T02:47:53;6.30;;;1.75;;
77872;SDS011;67068;52.116;4.440;2023-06-22T02:50:19;4.15;;;1.77;;
77872;SDS011;67068;52.116;4.440;2023-06-22T02:52:44;4.27;;;1.53;;
77872;SDS011;67068;52.116;4.440;2023-06-22T02:55:09;5.33;;;1.70;;
77872;SDS011;67068;52.116;4.440;2023-06-22T02:57:34;5.17;;;1.70;;
77872;SDS011;67068;52.116;4.440;2023-06-22T03:00:00;4.80;;;1.70;;
77872;SDS011;67068;52.116;4.440;2023-06-22T03:02:25;5.27;;;1.63;;
77872;SDS011;67068;52.116;4.440;2023-06-22T03:04:51;4.75;;;1.80;;
77872;SDS011;67068;52.116;4.440;2023-06-22T03:07:18;4.97;;;1.63;;
77872;SDS011;67068;52.116;4.440;2023-06-22T03:09:43;4.20;;;1.45;;
77872;SDS011;67068;52.116;4.440;2023-06-22T03:12:09;4.77;;;1.70;;
77872;SDS011;67068;52.116;4.440;2023-06-22T03:14:34;5.80;;;1.60;;
77872;SDS011;67068;52.116;4.440;2023-06-22T03:16:59;5.47;;;1.90;;
77872;SDS011;67068;52.116;4.440;2023-06-22T03:19:28;6.18;;;2.13;;
77872;SDS011;67068;52.116;4.440;2023-06-22T03:21:54;4.78;;;1.63;;
77872;SDS011;67068;52.116;4.440;2023-06-22T03:24:19;5.80;;;1.73;;
77872;SDS011;67068;52.116;4.440;2023-06-22T03:26:45;5.72;;;1.65;;
77872;SDS011;67068;52.116;4.440;2023-06-22T03:29:11;4.38;;;1.70;;
77872;SDS011;67068;52.116;4.440;2023-06-22T03:31:36;4.57;;;1.47;;
77872;SDS011;67068;52.116;4.440;2023-06-22T03:34:02;4.13;;;1.53;;
77872;SDS011;67068;52.116;4.440;2023-06-22T03:36:27;4.70;;;1.70;;
77872;SDS011;67068;52.116;4.440;2023-06-22T03:38:52;5.00;;;1.87;;
77872;SDS011;67068;52.116;4.440;2023-06-22T03:41:17;5.63;;;1.80;;
77872;SDS011;67068;52.116;4.440;2023-06-22T03:43:43;4.93;;;1.70;;
77872;SDS011;67068;52.116;4.440;2023-06-22T03:46:08;5.27;;;1.80;;
77872;SDS011;67068;52.116;4.440;2023-06-22T03:48:33;5.20;;;1.70;;
77872;SDS011;67068;52.116;4.440;2023-06-22T03:50:58;5.17;;;1.80;;
77872;SDS011;67068;52.116;4.440;2023-06-22T03:53:24;5.28;;;1.65;;
77872;SDS011;67068;52.116;4.440;2023-06-22T03:55:50;5.10;;;1.90;;
77872;SDS011;67068;52.116;4.440;2023-06-22T03:58:15;5.38;;;1.67;;
77872;SDS011;67068;52.116;4.440;2023-06-22T04:00:41;4.50;;;1.60;;
77872;SDS011;67068;52.116;4.440;2023-06-22T04:03:06;3.47;;;1.20;;
77872;SDS011;67068;52.116;4.440;2023-06-22T04:05:32;4.28;;;1.52;;
77872;SDS011;67068;52.116;4.440;2023-06-22T04:07:57;5.07;;;1.70;;
77872;SDS011;67068;52.116;4.440;2023-06-22T04:10:22;4.77;;;1.60;;
77872;SDS011;67068;52.116;4.440;2023-06-22T04:12:48;5.13;;;1.70;;
77872;SDS011;67068;52.116;4.440;2023-06-22T04:15:13;4.37;;;1.23;;
77872;SDS011;67068;52.116;4.440;2023-06-22T04:17:38;5.05;;;1.77;;
77872;SDS011;67068;52.116;4.440;2023-06-22T04:20:04;4.77;;;1.73;;
77872;SDS011;67068;52.116;4.440;2023-06-22T04:22:29;6.38;;;2.10;;
77872;SDS011;67068;52.116;4.440;2023-06-22T04:24:54;5.83;;;1.60;;
77872;SDS011;67068;52.116;4.440;2023-06-22T04:27:20;5.25;;;1.90;;
77872;SDS011;67068;52.116;4.440;2023-06-22T04:29:48;6.38;;;1.83;;
77872;SDS011;67068;52.116;4.440;2023-06-22T04:32:14;6.25;;;1.73;;
77872;SDS011;67068;52.116;4.440;2023-06-22T04:34:40;6.47;;;2.00;;
77872;SDS011;67068;52.116;4.440;2023-06-22T04:37:05;5.77;;;1.83;;
77872;SDS011;67068;52.116;4.440;2023-06-22T04:39:30;5.43;;;2.00;;
77872;SDS011;67068;52.116;4.440;2023-06-22T04:41:56;5.90;;;1.60;;
77872;SDS011;67068;52.116;4.440;2023-06-22T04:44:25;5.45;;;1.80;;
77872;SDS011;67068;52.116;4.440;2023-06-22T04:46:50;5.87;;;1.93;;
77872;SDS011;67068;52.116;4.440;2023-06-22T04:49:19;5.63;;;1.83;;
77872;SDS011;67068;52.116;4.440;2023-06-22T04:51:44;6.25;;;2.13;;
77872;SDS011;67068;52.116;4.440;2023-06-22T04:54:10;6.77;;;2.17;;
77872;SDS011;67068;52.116;4.440;2023-06-22T04:56:35;6.43;;;2.00;;
77872;SDS011;67068;52.116;4.440;2023-06-22T04:59:00;4.90;;;1.77;;
77872;SDS011;67068;52.116;4.440;2023-06-22T05:01:26;7.53;;;2.10;;
77872;SDS011;67068;52.116;4.440;2023-06-22T05:03:51;6.00;;;1.90;;
77872;SDS011;67068;52.116;4.440;2023-06-22T05:06:21;5.45;;;1.80;;
77872;SDS011;67068;52.116;4.440;2023-06-22T05:08:46;6.65;;;1.70;;
77872;SDS011;67068;52.116;4.440;2023-06-22T05:11:12;4.68;;;1.75;;
77872;SDS011;67068;52.116;4.440;2023-06-22T05:13:37;5.40;;;1.70;;
77872;SDS011;67068;52.116;4.440;2023-06-22T05:16:02;5.80;;;1.80;;
77872;SDS011;67068;52.116;4.440;2023-06-22T05:18:28;7.10;;;2.00;;
77872;SDS011;67068;52.116;4.440;2023-06-22T05:20:54;5.90;;;1.90;;
77872;SDS011;67068;52.116;4.440;2023-06-22T05:23:19;4.77;;;1.80;;
77872;SDS011;67068;52.116;4.440;2023-06-22T05:25:44;5.87;;;1.93;;
77872;SDS011;67068;52.116;4.440;2023-06-22T05:28:10;5.13;;;1.73;;
77872;SDS011;67068;52.116;4.440;2023-06-22T05:30:36;6.00;;;1.98;;
77872;SDS011;67068;52.116;4.440;2023-06-22T05:33:02;5.90;;;2.00;;
77872;SDS011;67068;52.116;4.440;2023-06-22T05:35:27;5.40;;;1.80;;
77872;SDS011;67068;52.116;4.440;2023-06-22T05:37:52;6.33;;;1.83;;
77872;SDS011;67068;52.116;4.440;2023-06-22T05:40:17;5.70;;;1.97;;
77872;SDS011;67068;52.116;4.440;2023-06-22T05:42:42;5.53;;;2.00;;
77872;SDS011;67068;52.116;4.440;2023-06-22T05:45:08;5.80;;;2.10;;
77872;SDS011;67068;52.116;4.440;2023-06-22T05:47:34;5.78;;;1.85;;
77872;SDS011;67068;52.116;4.440;2023-06-22T05:49:59;6.07;;;2.20;;
77872;SDS011;67068;52.116;4.440;2023-06-22T05:52:24;7.03;;;2.30;;
77872;SDS011;67068;52.116;4.440;2023-06-22T05:54:49;6.43;;;1.80;;
77872;SDS011;67068;52.116;4.440;2023-06-22T05:57:14;5.70;;;1.97;;
77872;SDS011;67068;52.116;4.440;2023-06-22T05:59:40;6.67;;;2.07;;
77872;SDS011;67068;52.116;4.440;2023-06-22T06:02:05;6.80;;;1.97;;
77872;SDS011;67068;52.116;4.440;2023-06-22T06:04:30;5.50;;;1.93;;
77872;SDS011;67068;52.116;4.440;2023-06-22T06:06:55;5.70;;;2.00;;
77872;SDS011;67068;52.116;4.440;2023-06-22T06:09:20;5.27;;;1.70;;
77872;SDS011;67068;52.116;4.440;2023-06-22T06:11:46;6.13;;;2.13;;
77872;SDS011;67068;52.116;4.440;2023-06-22T06:14:11;5.30;;;1.73;;
77872;SDS011;67068;52.116;4.440;2023-06-22T06:16:36;5.03;;;1.73;;
77872;SDS011;67068;52.116;4.440;2023-06-22T06:19:01;5.80;;;2.00;;
77872;SDS011;67068;52.116;4.440;2023-06-22T06:21:27;4.50;;;1.73;;
77872;SDS011;67068;52.116;4.440;2023-06-22T06:23:52;5.13;;;1.63;;
77872;SDS011;67068;52.116;4.440;2023-06-22T06:26:18;5.82;;;1.90;;
77872;SDS011;67068;52.116;4.440;2023-06-22T06:28:53;6.55;;;2.13;;
77872;SDS011;67068;52.116;4.440;2023-06-22T06:31:18;5.70;;;1.90;;
77872;SDS011;67068;52.116;4.440;2023-06-22T06:33:43;6.10;;;1.90;;
77872;SDS011;67068;52.116;4.440;2023-06-22T06:36:09;5.10;;;1.90;;
77872;SDS011;67068;52.116;4.440;2023-06-22T06:38:34;5.87;;;2.10;;
77872;SDS011;67068;52.116;4.440;2023-06-22T06:40:59;5.67;;;2.00;;
77872;SDS011;67068;52.116;4.440;2023-06-22T06:43:24;5.70;;;1.87;;
77872;SDS011;67068;52.116;4.440;2023-06-22T06:45:50;5.70;;;2.00;;
77872;SDS011;67068;52.116;4.440;2023-06-22T06:48:15;5.82;;;1.88;;
77872;SDS011;67068;52.116;4.440;2023-06-22T06:50:41;6.20;;;2.00;;
77872;SDS011;67068;52.116;4.440;2023-06-22T06:53:06;5.13;;;1.70;;
77872;SDS011;67068;52.116;4.440;2023-06-22T06:55:31;6.07;;;2.07;;
77872;SDS011;67068;52.116;4.440;2023-06-22T06:57:57;6.95;;;2.10;;
77872;SDS011;67068;52.116;4.440;2023-06-22T07:00:24;5.85;;;1.90;;
77872;SDS011;67068;52.116;4.440;2023-06-22T07:02:50;5.10;;;1.83;;
77872;SDS011;67068;52.116;4.440;2023-06-22T07:05:15;5.37;;;1.70;;
77872;SDS011;67068;52.116;4.440;2023-06-22T07:07:40;6.10;;;1.87;;
77872;SDS011;67068;52.116;4.440;2023-06-22T07:10:06;5.78;;;2.20;;
77872;SDS011;67068;52.116;4.440;2023-06-22T07:12:32;4.78;;;1.80;;
77872;SDS011;67068;52.116;4.440;2023-06-22T07:15:03;4.73;;;1.80;;
77872;SDS011;67068;52.116;4.440;2023-06-22T07:17:29;6.10;;;1.70;;
77872;SDS011;67068;52.116;4.440;2023-06-22T07:19:54;6.13;;;2.10;;
77872;SDS011;67068;52.116;4.440;2023-06-22T07:22:19;6.27;;;1.93;;
77872;SDS011;67068;52.116;4.440;2023-06-22T07:24:44;5.23;;;1.83;;
77872;SDS011;67068;52.116;4.440;2023-06-22T07:27:10;5.80;;;2.10;;
77872;SDS011;67068;52.116;4.440;2023-06-22T07:29:37;5.32;;;1.63;;
77872;SDS011;67068;52.116;4.440;2023-06-22T07:32:04;6.10;;;1.85;;
77872;SDS011;67068;52.116;4.440;2023-06-22T07:34:30;5.10;;;1.83;;
77872;SDS011;67068;52.116;4.440;2023-06-22T07:36:55;5.78;;;2.00;;
77872;SDS011;67068;52.116;4.440;2023-06-22T07:39:20;4.47;;;1.57;;
77872;SDS011;67068;52.116;4.440;2023-06-22T07:41:50;4.63;;;1.80;;
77872;SDS011;67068;52.116;4.440;2023-06-22T07:44:15;6.28;;;1.90;;
77872;SDS011;67068;52.116;4.440;2023-06-22T07:46:41;5.07;;;1.80;;
77872;SDS011;67068;52.116;4.440;2023-06-22T07:49:06;5.90;;;1.80;;
77872;SDS011;67068;52.116;4.440;2023-06-22T07:51:33;6.72;;;1.90;;
77872;SDS011;67068;52.116;4.440;2023-06-22T07:53:58;5.27;;;1.80;;
77872;SDS011;67068;52.116;4.440;2023-06-22T07:56:23;4.77;;;1.80;;
77872;SDS011;67068;52.116;4.440;2023-06-22T07:58:48;4.83;;;1.70;;
77872;SDS011;67068;52.116;4.440;2023-06-22T08:01:14;5.23;;;1.83;;
77872;SDS011;67068;52.116;4.440;2023-06-22T08:03:39;5.50;;;1.88;;
77872;SDS011;67068;52.116;4.440;2023-06-22T08:06:05;5.27;;;1.70;;
77872;SDS011;67068;52.116;4.440;2023-06-22T08:08:31;5.32;;;1.77;;
77872;SDS011;67068;52.116;4.440;2023-06-22T08:10:56;5.63;;;1.77;;
77872;SDS011;67068;52.116;4.440;2023-06-22T08:13:21;7.43;;;1.60;;
77872;SDS011;67068;52.116;4.440;2023-06-22T08:15:46;5.13;;;1.48;;
77872;SDS011;67068;52.116;4.440;2023-06-22T08:18:12;5.63;;;1.90;;
77872;SDS011;67068;52.116;4.440;2023-06-22T08:20:37;4.93;;;1.53;;
77872;SDS011;67068;52.116;4.440;2023-06-22T08:23:02;5.23;;;1.70;;
77872;SDS011;67068;52.116;4.440;2023-06-22T08:25:31;5.18;;;1.67;;
77872;SDS011;67068;52.116;4.440;2023-06-22T08:27:57;4.80;;;1.60;;
77872;SDS011;67068;52.116;4.440;2023-06-22T08:30:22;4.43;;;1.40;;
77872;SDS011;67068;52.116;4.440;2023-06-22T08:32:48;4.95;;;1.70;;
77872;SDS011;67068;52.116;4.440;2023-06-22T08:35:13;5.57;;;1.70;;
77872;SDS011;67068;52.116;4.440;2023-06-22T08:37:39;4.68;;;1.60;;
77872;SDS011;67068;52.116;4.440;2023-06-22T08:40:06;5.35;;;1.63;;
77872;SDS011;67068;52.116;4.440;2023-06-22T08:42:35;5.07;;;1.70;;
77872;SDS011;67068;52.116;4.440;2023-06-22T08:45:00;5.32;;;1.52;;
77872;SDS011;67068;52.116;4.440;2023-06-22T08:47:27;5.90;;;1.80;;
77872;SDS011;67068;52.116;4.440;2023-06-22T08:49:52;5.18;;;1.67;;
77872;SDS011;67068;52.116;4.440;2023-06-22T08:52:18;4.27;;;1.47;;
77872;SDS011;67068;52.116;4.440;2023-06-22T08:54:44;4.70;;;1.63;;
77872;SDS011;67068;52.116;4.440;2023-06-22T08:57:10;4.73;;;1.60;;
77872;SDS011;67068;52.116;4.440;2023-06-22T08:59:35;3.80;;;1.42;;
77872;SDS011;67068;52.116;4.440;2023-06-22T09:02:00;4.83;;;1.57;;
77872;SDS011;67068;52.116;4.440;2023-06-22T09:04:25;5.13;;;1.57;;
77872;SDS011;67068;52.116;4.440;2023-06-22T09:06:51;3.97;;;1.50;;
77872;SDS011;67068;52.116;4.440;2023-06-22T09:09:17;4.97;;;1.65;;
77872;SDS011;67068;52.116;4.440;2023-06-22T09:11:42;4.53;;;1.50;;
77872;SDS011;67068;52.116;4.440;2023-06-22T09:14:08;4.57;;;1.70;;
77872;SDS011;67068;52.116;4.440;2023-06-22T09:16:34;5.32;;;1.67;;
77872;SDS011;67068;52.116;4.440;2023-06-22T09:18:59;4.78;;;1.58;;
77872;SDS011;67068;52.116;4.440;2023-06-22T09:21:24;5.47;;;1.90;;
77872;SDS011;67068;52.116;4.440;2023-06-22T09:23:49;4.87;;;1.80;;
77872;SDS011;67068;52.116;4.440;2023-06-22T09:26:19;4.20;;;1.50;;
77872;SDS011;67068;52.116;4.440;2023-06-22T09:28:44;4.20;;;1.55;;
77872;SDS011;67068;52.116;4.440;2023-06-22T09:31:10;4.83;;;1.50;;
77872;SDS011;67068;52.116;4.440;2023-06-22T09:33:35;5.43;;;1.90;;
77872;SDS011;67068;52.116;4.440;2023-06-22T09:36:01;4.93;;;1.60;;
77872;SDS011;67068;52.116;4.440;2023-06-22T09:38:26;4.60;;;1.43;;
77872;SDS011;67068;52.116;4.440;2023-06-22T09:40:51;4.40;;;1.40;;
77872;SDS011;67068;52.116;4.440;2023-06-22T09:43:16;4.97;;;1.67;;
77872;SDS011;67068;52.116;4.440;2023-06-22T09:45:41;5.10;;;1.60;;
77872;SDS011;67068;52.116;4.440;2023-06-22T09:48:07;4.20;;;1.50;;
77872;SDS011;67068;52.116;4.440;2023-06-22T09:50:32;5.57;;;2.07;;
77872;SDS011;67068;52.116;4.440;2023-06-22T09:52:57;6.27;;;1.80;;
77872;SDS011;67068;52.116;4.440;2023-06-22T09:55:22;4.50;;;1.40;;
77872;SDS011;67068;52.116;4.440;2023-06-22T09:57:48;5.32;;;1.70;;
77872;SDS011;67068;52.116;4.440;2023-06-22T10:00:13;7.33;;;2.00;;
77872;SDS011;67068;52.116;4.440;2023-06-22T10:02:41;4.88;;;1.58;;
77872;SDS011;67068;52.116;4.440;2023-06-22T10:05:06;5.47;;;1.90;;
77872;SDS011;67068;52.116;4.440;2023-06-22T10:07:32;3.90;;;1.48;;
77872;SDS011;67068;52.116;4.440;2023-06-22T10:09:57;4.87;;;1.70;;
77872;SDS011;67068;52.116;4.440;2023-06-22T10:12:23;4.30;;;1.50;;
77872;SDS011;67068;52.116;4.440;2023-06-22T10:14:48;4.70;;;1.70;;
77872;SDS011;67068;52.116;4.440;2023-06-22T10:17:13;4.60;;;1.50;;
77872;SDS011;67068;52.116;4.440;2023-06-22T10:19:38;5.27;;;1.90;;
77872;SDS011;67068;52.116;4.440;2023-06-22T10:22:04;5.47;;;1.87;;
77872;SDS011;67068;52.116;4.440;2023-06-22T10:24:30;5.40;;;1.60;;
77872;SDS011;67068;52.116;4.440;2023-06-22T10:26:55;6.33;;;1.93;;
77872;SDS011;67068;52.116;4.440;2023-06-22T10:29:20;5.87;;;1.83;;
77872;SDS011;67068;52.116;4.440;2023-06-22T10:31:45;4.35;;;1.63;;
77872;SDS011;67068;52.116;4.440;2023-06-22T10:34:11;6.27;;;2.17;;
77872;SDS011;67068;52.116;4.440;2023-06-22T10:36:36;6.23;;;1.70;;
77872;SDS011;67068;52.116;4.440;2023-06-22T10:39:01;6.77;;;2.00;;
77872;SDS011;67068;52.116;4.440;2023-06-22T10:41:27;8.02;;;2.40;;
77872;SDS011;67068;52.116;4.440;2023-06-22T10:43:55;6.90;;;2.47;;
77872;SDS011;67068;52.116;4.440;2023-06-22T10:46:20;6.73;;;2.53;;
77872;SDS011;67068;52.116;4.440;2023-06-22T10:48:45;7.37;;;2.37;;
77872;SDS011;67068;52.116;4.440;2023-06-22T10:51:10;9.20;;;2.87;;
77872;SDS011;67068;52.116;4.440;2023-06-22T10:53:35;8.47;;;2.93;;
77872;SDS011;67068;52.116;4.440;2023-06-22T10:56:01;7.07;;;2.80;;
77872;SDS011;67068;52.116;4.440;2023-06-22T10:58:26;7.43;;;2.80;;
77872;SDS011;67068;52.116;4.440;2023-06-22T11:00:51;8.13;;;3.08;;
77872;SDS011;67068;52.116;4.440;2023-06-22T11:03:16;8.50;;;3.27;;
77872;SDS011;67068;52.116;4.440;2023-06-22T11:05:42;8.17;;;3.50;;
77872;SDS011;67068;52.116;4.440;2023-06-22T11:08:07;8.03;;;3.00;;
77872;SDS011;67068;52.116;4.440;2023-06-22T11:10:32;8.77;;;3.50;;
77872;SDS011;67068;52.116;4.440;2023-06-22T11:12:57;8.57;;;3.23;;
77872;SDS011;67068;52.116;4.440;2023-06-22T11:15:23;9.00;;;3.70;;
77872;SDS011;67068;52.116;4.440;2023-06-22T11:17:48;9.02;;;3.75;;
77872;SDS011;67068;52.116;4.440;2023-06-22T11:20:14;9.13;;;3.97;;
77872;SDS011;67068;52.116;4.440;2023-06-22T11:22:39;10.45;;;4.10;;
77872;SDS011;67068;52.116;4.440;2023-06-22T11:25:05;10.25;;;3.90;;
77872;SDS011;67068;52.116;4.440;2023-06-22T11:27:30;9.32;;;3.85;;
77872;SDS011;67068;52.116;4.440;2023-06-22T11:29:56;11.10;;;4.00;;
77872;SDS011;67068;52.116;4.440;2023-06-22T11:32:22;9.27;;;3.53;;
77872;SDS011;67068;52.116;4.440;2023-06-22T11:34:47;11.10;;;4.53;;
77872;SDS011;67068;52.116;4.440;2023-06-22T11:37:12;9.63;;;3.40;;
77872;SDS011;67068;52.116;4.440;2023-06-22T11:39:38;8.13;;;3.30;;
77872;SDS011;67068;52.116;4.440;2023-06-22T11:42:03;9.90;;;4.50;;
77872;SDS011;67068;52.116;4.440;2023-06-22T11:44:28;9.57;;;3.60;;
77872;SDS011;67068;52.116;4.440;2023-06-22T11:46:53;9.13;;;3.73;;
77872;SDS011;67068;52.116;4.440;2023-06-22T11:49:19;10.57;;;3.97;;
77872;SDS011;67068;52.116;4.440;2023-06-22T11:51:44;10.67;;;3.83;;
77872;SDS011;67068;52.116;4.440;2023-06-22T11:54:09;9.90;;;4.37;;
77872;SDS011;67068;52.116;4.440;2023-06-22T11:56:34;10.50;;;4.10;;
77872;SDS011;67068;52.116;4.440;2023-06-22T11:58:59;10.57;;;4.60;;
77872;SDS011;67068;52.116;4.440;2023-06-22T12:01:25;10.20;;;4.50;;
77872;SDS011;67068;52.116;4.440;2023-06-22T12:03:50;9.93;;;4.07;;
77872;SDS011;67068;52.116;4.440;2023-06-22T12:06:15;11.95;;;4.30;;
77872;SDS011;67068;52.116;4.440;2023-06-22T12:08:41;11.87;;;5.13;;
77872;SDS011;67068;52.116;4.440;2023-06-22T12:11:06;11.60;;;4.30;;
77872;SDS011;67068;52.116;4.440;2023-06-22T12:13:31;13.03;;;5.83;;
77872;SDS011;67068;52.116;4.440;2023-06-22T12:15:57;10.07;;;4.03;;
77872;SDS011;67068;52.116;4.440;2023-06-22T12:18:22;14.03;;;5.80;;
77872;SDS011;67068;52.116;4.440;2023-06-22T12:20:47;11.13;;;4.33;;
77872;SDS011;67068;52.116;4.440;2023-06-22T12:23:12;11.48;;;4.82;;
77872;SDS011;67068;52.116;4.440;2023-06-22T12:25:38;11.95;;;4.75;;
77872;SDS011;67068;52.116;4.440;2023-06-22T12:28:04;11.40;;;4.23;;
77872;SDS011;67068;52.116;4.440;2023-06-22T12:30:29;11.00;;;4.35;;
77872;SDS011;67068;52.116;4.440;2023-06-22T12:32:55;9.52;;;4.25;;
77872;SDS011;67068;52.116;4.440;2023-06-22T12:35:20;10.87;;;5.03;;
77872;SDS011;67068;52.116;4.440;2023-06-22T12:37:45;12.70;;;4.68;;
77872;SDS011;67068;52.116;4.440;2023-06-22T12:40:11;11.67;;;5.20;;
77872;SDS011;67068;52.116;4.440;2023-06-22T12:42:36;10.82;;;4.80;;
77872;SDS011;67068;52.116;4.440;2023-06-22T12:45:01;9.93;;;4.90;;
77872;SDS011;67068;52.116;4.440;2023-06-22T12:47:26;10.75;;;5.03;;
77872;SDS011;67068;52.116;4.440;2023-06-22T12:49:52;12.27;;;5.43;;
77872;SDS011;67068;52.116;4.440;2023-06-22T12:52:17;11.63;;;4.70;;
77872;SDS011;67068;52.116;4.440;2023-06-22T12:54:42;11.52;;;4.72;;
77872;SDS011;67068;52.116;4.440;2023-06-22T12:57:07;9.80;;;4.23;;
77872;SDS011;67068;52.116;4.440;2023-06-22T12:59:33;9.90;;;4.10;;
77872;SDS011;67068;52.116;4.440;2023-06-22T13:02:01;11.10;;;3.65;;
77872;SDS011;67068;52.116;4.440;2023-06-22T13:04:27;8.57;;;3.30;;
77872;SDS011;67068;52.116;4.440;2023-06-22T13:06:52;9.77;;;3.63;;
77872;SDS011;67068;52.116;4.440;2023-06-22T13:09:18;9.93;;;3.63;;
77872;SDS011;67068;52.116;4.440;2023-06-22T13:11:43;9.32;;;3.50;;
77872;SDS011;67068;52.116;4.440;2023-06-22T13:14:08;9.23;;;3.28;;
77872;SDS011;67068;52.116;4.440;2023-06-22T13:16:34;8.25;;;3.70;;
77872;SDS011;67068;52.116;4.440;2023-06-22T13:18:59;8.00;;;3.33;;
77872;SDS011;67068;52.116;4.440;2023-06-22T13:21:24;8.00;;;3.30;;
77872;SDS011;67068;52.116;4.440;2023-06-22T13:23:49;9.17;;;3.10;;
77872;SDS011;67068;52.116;4.440;2023-06-22T13:26:15;8.90;;;3.40;;
77872;SDS011;67068;52.116;4.440;2023-06-22T13:28:40;8.40;;;3.38;;
77872;SDS011;67068;52.116;4.440;2023-06-22T13:31:05;8.65;;;3.63;;
77872;SDS011;67068;52.116;4.440;2023-06-22T13:33:31;11.00;;;4.73;;
77872;SDS011;67068;52.116;4.440;2023-06-22T13:35:56;10.67;;;4.43;;
77872;SDS011;67068;52.116;4.440;2023-06-22T13:38:21;11.27;;;5.27;;
77872;SDS011;67068;52.116;4.440;2023-06-22T13:40:47;14.15;;;5.80;;
77872;SDS011;67068;52.116;4.440;2023-06-22T13:43:13;11.30;;;5.28;;
77872;SDS011;67068;52.116;4.440;2023-06-22T13:45:38;12.48;;;5.32;;
77872;SDS011;67068;52.116;4.440;2023-06-22T13:48:03;12.67;;;4.97;;
77872;SDS011;67068;52.116;4.440;2023-06-22T13:50:28;11.80;;;5.60;;
77872;SDS011;67068;52.116;4.440;2023-06-22T13:52:55;12.10;;;5.85;;
77872;SDS011;67068;52.116;4.440;2023-06-22T13:55:20;11.23;;;5.45;;
77872;SDS011;67068;52.116;4.440;2023-06-22T13:57:46;11.50;;;5.93;;
77872;SDS011;67068;52.116;4.440;2023-06-22T14:00:11;12.83;;;5.90;;
77872;SDS011;67068;52.116;4.440;2023-06-22T14:02:39;12.77;;;5.50;;
77872;SDS011;67068;52.116;4.440;2023-06-22T14:05:05;13.45;;;5.78;;
77872;SDS011;67068;52.116;4.440;2023-06-22T14:07:32;14.52;;;5.70;;
77872;SDS011;67068;52.116;4.440;2023-06-22T14:09:57;12.33;;;5.00;;
77872;SDS011;67068;52.116;4.440;2023-06-22T14:12:23;11.30;;;5.88;;
77872;SDS011;67068;52.116;4.440;2023-06-22T14:14:48;10.77;;;5.70;;
77872;SDS011;67068;52.116;4.440;2023-06-22T14:17:13;13.10;;;5.83;;
77872;SDS011;67068;52.116;4.440;2023-06-22T14:19:39;10.70;;;5.27;;
77872;SDS011;67068;52.116;4.440;2023-06-22T14:22:04;11.17;;;5.07;;
77872;SDS011;67068;52.116;4.440;2023-06-22T14:24:29;11.68;;;5.40;;
77872;SDS011;67068;52.116;4.440;2023-06-22T14:26:55;11.37;;;5.43;;
77872;SDS011;67068;52.116;4.440;2023-06-22T14:29:21;13.88;;;5.57;;
77872;SDS011;67068;52.116;4.440;2023-06-22T14:31:46;10.88;;;5.20;;
77872;SDS011;67068;52.116;4.440;2023-06-22T14:34:12;12.07;;;4.97;;
77872;SDS011;67068;52.116;4.440;2023-06-22T14:36:37;10.90;;;4.82;;
77872;SDS011;67068;52.116;4.440;2023-06-22T14:39:02;9.87;;;4.90;;
77872;SDS011;67068;52.116;4.440;2023-06-22T14:41:27;13.43;;;5.60;;
77872;SDS011;67068;52.116;4.440;2023-06-22T14:43:53;12.55;;;5.43;;
77872;SDS011;67068;52.116;4.440;2023-06-22T14:46:18;12.40;;;5.83;;
77872;SDS011;67068;52.116;4.440;2023-06-22T14:48:44;11.18;;;5.68;;